Date,TemperatureHighF,TemperatureAvgF,TemperatureLowF,DewpointHighF,DewpointAvgF,DewpointLowF,HumidityHigh,HumidityAvg,HumidityLow,PressureMaxIn,PressureMinIn,WindSpeedMaxMPH,WindSpeedAvgMPH,GustSpeedMaxMPH,PrecipitationSumIn
2013-3-1,45,42,39,40,34,29,89,72,62,29.89,29.83,2,0,8,0.02
2013-3-2,37,33,28,28,26,24,84,75,67,29.83,29.77,0,0,1,0.02
2013-3-3,46,37,26,36,31,22,87,79,66,29.78,29.65,2,0,3,0.00
2013-3-4,37,35,33,31,30,29,84,81,78,29.52,29.33,0,0,0,0.00
2013-3-5,50,44,39,43,39,36,91,81,71,29.25,29.17,0,0,0,0.00
2013-3-6,56,50,42,44,41,36,84,73,62,29.16,29.08,1,0,2,0.01
2013-3-7,49,47,45,46,44,41,92,90,83,29.10,28.97,3,1,4,0.19
2013-3-8,50,49,47,48,47,45,93,92,91,29.14,29.00,0,0,3,0.46
2013-3-9,46,43,39,43,39,34,92,85,82,29.25,29.16,6,3,8,0.48
2013-3-10,40,37,34,34,30,26,83,74,70,29.31,29.24,12,2,13,0.50
2013-3-11,34,32,29,26,21,17,73,65,53,29.32,29.26,2,0,2,0.00
2013-3-12,36,31,30,28,21,15,74,65,52,29.38,29.31,0,0,1,0.00
2013-3-13,45,37,31,30,27,24,79,66,45,29.49,29.33,0,0,0,0.00
2013-3-14,39,32,25,26,24,20,86,71,55,29.53,29.48,0,0,0,0.00
2013-3-15,47,46,44,40,40,40,85,82,78,29.32,29.32,0,0,1,0.02
2013-3-25,35,34,33,23,22,20,63,61,55,29.48,29.45,1,0,1,0.00
2013-3-26,36,34,33,23,22,21,65,60,55,29.46,29.42,0,0,0,0.00
2013-3-27,44,36,31,28,23,19,74,60,50,29.43,29.38,0,0,0,0.00
2013-3-28,40,36,28,29,23,18,82,62,47,29.48,29.37,0,0,0,0.00
2013-3-29,44,36,27,26,23,19,76,60,44,29.45,29.33,0,0,0,0.00
2013-3-30,44,37,34,30,26,23,71,63,52,29.51,29.33,0,0,0,0.00
2013-3-31,44,34,26,28,24,19,84,67,48,29.50,29.48,0,0,7,0.00